sensor_id;sensor_type;location;lat;lon;timestamp;temperature;humidity
11505;DHT22;5809;53.262;10.408;2023-07-28T00:04:35;16.20;99.90
11505;DHT22;5809;53.262;10.408;2023-07-28T00:07:02;16.20;99.90
11505;DHT22;5809;53.262;10.408;2023-07-28T00:11:56;16.10;99.90
11505;DHT22;5809;53.262;10.408;2023-07-28T00:31:39;16.20;99.90
11505;DHT22;5809;53.262;10.408;2023-07-28T00:46:23;16.30;99.90
11505;DHT22;5809;53.262;10.408;2023-07-28T01:06:10;16.30;99.90
11505;DHT22;5809;53.262;10.408;2023-07-28T01:08:47;16.30;99.90
11505;DHT22;5809;53.262;10.408;2023-07-28T01:18:36;16.20;99.90
11505;DHT22;5809;53.262;10.408;2023-07-28T01:21:05;16.20;99.90
11505;DHT22;5809;53.262;10.408;2023-07-28T01:23:39;16.20;99.90
11505;DHT22;5809;53.262;10.408;2023-07-28T01:26:10;16.20;99.90
11505;DHT22;5809;53.262;10.408;2023-07-28T01:28:40;16.20;99.90
11505;DHT22;5809;53.262;10.408;2023-07-28T01:33:35;16.10;99.90
11505;DHT22;5809;53.262;10.408;2023-07-28T01:36:03;16.10;99.90
11505;DHT22;5809;53.262;10.408;2023-07-28T01:38:30;16.10;99.90
11505;DHT22;5809;53.262;10.408;2023-07-28T01:40:57;16.10;99.90
11505;DHT22;5809;53.262;10.408;2023-07-28T01:43:23;16.20;99.90
11505;DHT22;5809;53.262;10.408;2023-07-28T01:45:52;16.20;99.90
11505;DHT22;5809;53.262;10.408;2023-07-28T01:48:19;16.20;99.90
11505;DHT22;5809;53.262;10.408;2023-07-28T01:50:46;16.20;99.90
11505;DHT22;5809;53.262;10.408;2023-07-28T01:53:12;16.20;99.90
11505;DHT22;5809;53.262;10.408;2023-07-28T01:55:39;16.20;99.90
11505;DHT22;5809;53.262;10.408;2023-07-28T02:00:35;16.20;99.90
11505;DHT22;5809;53.262;10.408;2023-07-28T02:03:03;16.20;99.90
11505;DHT22;5809;53.262;10.408;2023-07-28T02:05:30;16.20;99.90
11505;DHT22;5809;53.262;10.408;2023-07-28T02:07:57;16.20;99.90
11505;DHT22;5809;53.262;10.408;2023-07-28T02:10:26;16.30;99.90
11505;DHT22;5809;53.262;10.408;2023-07-28T02:15:20;16.30;99.90
11505;DHT22;5809;53.262;10.408;2023-07-28T02:20:16;17.10;99.90
11505;DHT22;5809;53.262;10.408;2023-07-28T02:27:37;16.40;99.90
11505;DHT22;5809;53.262;10.408;2023-07-28T02:30:05;16.20;99.90
11505;DHT22;5809;53.262;10.408;2023-07-28T02:32:32;16.40;99.90
11505;DHT22;5809;53.262;10.408;2023-07-28T02:34:59;16.50;99.90
11505;DHT22;5809;53.262;10.408;2023-07-28T02:37:28;16.40;99.90
11505;DHT22;5809;53.262;10.408;2023-07-28T02:39:55;16.50;99.90
11505;DHT22;5809;53.262;10.408;2023-07-28T02:44:50;16.50;99.90
11505;DHT22;5809;53.262;10.408;2023-07-28T02:47:17;16.50;99.90
11505;DHT22;5809;53.262;10.408;2023-07-28T02:49:44;16.50;99.90
11505;DHT22;5809;53.262;10.408;2023-07-28T02:52:11;16.50;99.90
11505;DHT22;5809;53.262;10.408;2023-07-28T02:54:39;16.60;99.90
11505;DHT22;5809;53.262;10.408;2023-07-28T02:59:33;16.50;99.90
11505;DHT22;5809;53.262;10.408;2023-07-28T03:02:00;16.50;99.90
11505;DHT22;5809;53.262;10.408;2023-07-28T03:04:27;16.60;99.90
11505;DHT22;5809;53.262;10.408;2023-07-28T03:06:54;16.50;99.90
11505;DHT22;5809;53.262;10.408;2023-07-28T03:09:21;16.50;99.90
11505;DHT22;5809;53.262;10.408;2023-07-28T03:11:50;16.50;99.90
11505;DHT22;5809;53.262;10.408;2023-07-28T03:14:16;16.50;99.90
11505;DHT22;5809;53.262;10.408;2023-07-28T03:16:43;16.50;99.90
11505;DHT22;5809;53.262;10.408;2023-07-28T03:19:10;16.50;99.90
11505;DHT22;5809;53.262;10.408;2023-07-28T03:21:37;16.50;99.90
11505;DHT22;5809;53.262;10.408;2023-07-28T03:24:05;16.50;99.90
11505;DHT22;5809;53.262;10.408;2023-07-28T03:26:31;16.50;99.90
11505;DHT22;5809;53.262;10.408;2023-07-28T03:29:00;16.60;99.90
11505;DHT22;5809;53.262;10.408;2023-07-28T03:33:54;16.60;99.90
11505;DHT22;5809;53.262;10.408;2023-07-28T03:38:48;16.60;99.90
11505;DHT22;5809;53.262;10.408;2023-07-28T03:41:15;16.60;99.90
11505;DHT22;5809;53.262;10.408;2023-07-28T03:43:42;16.60;99.90
11505;DHT22;5809;53.262;10.408;2023-07-28T03:46:10;16.60;99.90
11505;DHT22;5809;53.262;10.408;2023-07-28T03:51:04;16.60;99.90
11505;DHT22;5809;53.262;10.408;2023-07-28T03:53:31;16.60;99.90
11505;DHT22;5809;53.262;10.408;2023-07-28T03:56:00;16.60;99.90
11505;DHT22;5809;53.262;10.408;2023-07-28T04:00:54;16.70;99.90
11505;DHT22;5809;53.262;10.408;2023-07-28T04:03:23;16.60;99.90
11505;DHT22;5809;53.262;10.408;2023-07-28T04:08:17;16.60;99.90
11505;DHT22;5809;53.262;10.408;2023-07-28T04:13:11;16.70;99.90
11505;DHT22;5809;53.262;10.408;2023-07-28T04:20:34;16.70;99.90
11505;DHT22;5809;53.262;10.408;2023-07-28T04:23:00;16.70;99.90
11505;DHT22;5809;53.262;10.408;2023-07-28T04:25:27;16.70;99.90
11505;DHT22;5809;53.262;10.408;2023-07-28T04:30:22;16.70;99.90
11505;DHT22;5809;53.262;10.408;2023-07-28T04:32:48;16.70;99.90
11505;DHT22;5809;53.262;10.408;2023-07-28T04:35:15;16.60;99.90
11505;DHT22;5809;53.262;10.408;2023-07-28T04:37:44;16.50;99.90
11505;DHT22;5809;53.262;10.408;2023-07-28T04:40:11;16.50;99.90
11505;DHT22;5809;53.262;10.408;2023-07-28T04:42:38;16.50;99.90
11505;DHT22;5809;53.262;10.408;2023-07-28T04:45:06;16.50;99.90
11505;DHT22;5809;53.262;10.408;2023-07-28T04:47:33;16.50;99.90
11505;DHT22;5809;53.262;10.408;2023-07-28T04:52:27;16.50;99.90
11505;DHT22;5809;53.262;10.408;2023-07-28T04:54:56;16.50;99.90
11505;DHT22;5809;53.262;10.408;2023-07-28T04:57:23;16.50;99.90
11505;DHT22;5809;53.262;10.408;2023-07-28T04:59:49;16.50;99.90
11505;DHT22;5809;53.262;10.408;2023-07-28T05:02:17;16.50;99.90
11505;DHT22;5809;53.262;10.408;2023-07-28T05:04:44;16.40;99.90
11505;DHT22;5809;53.262;10.408;2023-07-28T05:07:11;16.40;99.90
11505;DHT22;5809;53.262;10.408;2023-07-28T05:12:07;16.40;99.90
11505;DHT22;5809;53.262;10.408;2023-07-28T05:14:34;16.40;99.90
11505;DHT22;5809;53.262;10.408;2023-07-28T05:17:01;16.40;99.90
11505;DHT22;5809;53.262;10.408;2023-07-28T05:19:28;16.40;99.90
11505;DHT22;5809;53.262;10.408;2023-07-28T05:21:55;16.40;99.90
11505;DHT22;5809;53.262;10.408;2023-07-28T05:26:49;14.80;99.90
11505;DHT22;5809;53.262;10.408;2023-07-28T05:29:17;16.40;99.90
11505;DHT22;5809;53.262;10.408;2023-07-28T05:34:11;16.60;99.90
11505;DHT22;5809;53.262;10.408;2023-07-28T05:41:33;16.70;99.90
11505;DHT22;5809;53.262;10.408;2023-07-28T05:46:28;16.60;99.90
11505;DHT22;5809;53.262;10.408;2023-07-28T05:48:56;16.50;99.90
11505;DHT22;5809;53.262;10.408;2023-07-28T05:51:23;16.50;99.90
11505;DHT22;5809;53.262;10.408;2023-07-28T05:53:50;16.50;99.90
11505;DHT22;5809;53.262;10.408;2023-07-28T05:58:44;16.60;99.90
11505;DHT22;5809;53.262;10.408;2023-07-28T06:01:11;16.60;99.90
11505;DHT22;5809;53.262;10.408;2023-07-28T06:03:39;16.70;99.90
11505;DHT22;5809;53.262;10.408;2023-07-28T06:06:06;16.90;99.90
11505;DHT22;5809;53.262;10.408;2023-07-28T06:08:34;17.10;99.90
11505;DHT22;5809;53.262;10.408;2023-07-28T06:11:03;17.10;99.90
11505;DHT22;5809;53.262;10.408;2023-07-28T06:13:30;17.10;99.90
11505;DHT22;5809;53.262;10.408;2023-07-28T06:15:58;17.10;99.90
11505;DHT22;5809;53.262;10.408;2023-07-28T06:18:25;17.20;99.90
11505;DHT22;5809;53.262;10.408;2023-07-28T06:20:53;17.20;99.90
11505;DHT22;5809;53.262;10.408;2023-07-28T06:23:20;17.20;99.90
11505;DHT22;5809;53.262;10.408;2023-07-28T06:25:47;17.10;99.90
11505;DHT22;5809;53.262;10.408;2023-07-28T06:30:41;17.20;99.90
11505;DHT22;5809;53.262;10.408;2023-07-28T06:33:08;17.30;99.90
11505;DHT22;5809;53.262;10.408;2023-07-28T06:35:35;17.40;99.90
11505;DHT22;5809;53.262;10.408;2023-07-28T06:38:04;17.50;99.90
11505;DHT22;5809;53.262;10.408;2023-07-28T06:40:31;17.40;99.90
11505;DHT22;5809;53.262;10.408;2023-07-28T06:45:25;17.40;99.90
11505;DHT22;5809;53.262;10.408;2023-07-28T06:50:19;17.40;99.90
11505;DHT22;5809;53.262;10.408;2023-07-28T06:52:46;17.50;99.90
11505;DHT22;5809;53.262;10.408;2023-07-28T06:55:17;17.60;99.90
11505;DHT22;5809;53.262;10.408;2023-07-28T07:00:12;17.70;99.90
11505;DHT22;5809;53.262;10.408;2023-07-28T07:02:40;17.80;99.90
11505;DHT22;5809;53.262;10.408;2023-07-28T07:05:07;17.90;99.90
11505;DHT22;5809;53.262;10.408;2023-07-28T07:10:02;17.90;99.90
11505;DHT22;5809;53.262;10.408;2023-07-28T07:12:31;18.10;99.90
11505;DHT22;5809;53.262;10.408;2023-07-28T07:14:58;18.10;99.90
11505;DHT22;5809;53.262;10.408;2023-07-28T07:19:52;18.20;99.90
11505;DHT22;5809;53.262;10.408;2023-07-28T07:22:18;18.10;99.90
11505;DHT22;5809;53.262;10.408;2023-07-28T07:27:13;18.40;99.90
11505;DHT22;5809;53.262;10.408;2023-07-28T07:32:08;18.50;99.90
11505;DHT22;5809;53.262;10.408;2023-07-28T07:37:04;18.80;99.90
11505;DHT22;5809;53.262;10.408;2023-07-28T07:49:23;19.10;99.90
11505;DHT22;5809;53.262;10.408;2023-07-28T07:54:17;19.10;99.90
11505;DHT22;5809;53.262;10.408;2023-07-28T08:18:53;18.80;99.90
11505;DHT22;5809;53.262;10.408;2023-07-28T08:28:43;18.70;99.90
11505;DHT22;5809;53.262;10.408;2023-07-28T08:33:37;18.80;99.90
11505;DHT22;5809;53.262;10.408;2023-07-28T09:23:03;20.70;99.90
11505;DHT22;5809;53.262;10.408;2023-07-28T09:30:27;21.60;1.00
11505;DHT22;5809;53.262;10.408;2023-07-28T09:35:47;22.40;1.00
11505;DHT22;5809;53.262;10.408;2023-07-28T09:43:12;22.10;99.90
11505;DHT22;5809;53.262;10.408;2023-07-28T09:48:10;21.90;99.90
11505;DHT22;5809;53.262;10.408;2023-07-28T09:50:41;21.80;99.90
11505;DHT22;5809;53.262;10.408;2023-07-28T09:53:09;21.60;99.90
11505;DHT22;5809;53.262;10.408;2023-07-28T10:03:06;21.00;1.00
11505;DHT22;5809;53.262;10.408;2023-07-28T10:08:03;20.80;1.00
11505;DHT22;5809;53.262;10.408;2023-07-28T10:12:59;20.90;88.80
11505;DHT22;5809;53.262;10.408;2023-07-28T10:30:35;21.30;1.00
11505;DHT22;5809;53.262;10.408;2023-07-28T10:33:03;21.30;1.00
11505;DHT22;5809;53.262;10.408;2023-07-28T10:38:30;21.10;1.00
11505;DHT22;5809;53.262;10.408;2023-07-28T10:41:08;21.10;1.00
11505;DHT22;5809;53.262;10.408;2023-07-28T10:43:35;21.20;1.00
11505;DHT22;5809;53.262;10.408;2023-07-28T10:46:04;21.40;1.00
11505;DHT22;5809;53.262;10.408;2023-07-28T10:53:27;23.50;99.90
11505;DHT22;5809;53.262;10.408;2023-07-28T10:55:54;24.30;99.90
11505;DHT22;5809;53.262;10.408;2023-07-28T10:58:21;25.20;99.90
11505;DHT22;5809;53.262;10.408;2023-07-28T11:00:50;26.00;59.40
11505;DHT22;5809;53.262;10.408;2023-07-28T11:05:45;25.80;1.00
11505;DHT22;5809;53.262;10.408;2023-07-28T11:08:14;25.80;1.00
11505;DHT22;5809;53.262;10.408;2023-07-28T11:10:43;25.70;8.50
11505;DHT22;5809;53.262;10.408;2023-07-28T11:13:10;25.60;1.00
11505;DHT22;5809;53.262;10.408;2023-07-28T11:18:04;24.90;1.00
11505;DHT22;5809;53.262;10.408;2023-07-28T11:20:32;24.90;1.00
11505;DHT22;5809;53.262;10.408;2023-07-28T11:23:01;24.90;99.90
11505;DHT22;5809;53.262;10.408;2023-07-28T11:25:29;24.70;1.00
11505;DHT22;5809;53.262;10.408;2023-07-28T11:30:25;23.90;31.40
11505;DHT22;5809;53.262;10.408;2023-07-28T11:32:53;23.70;22.20
11505;DHT22;5809;53.262;10.408;2023-07-28T11:37:50;23.30;1.00
11505;DHT22;5809;53.262;10.408;2023-07-28T11:40:20;23.30;1.00
11505;DHT22;5809;53.262;10.408;2023-07-28T11:45:17;23.20;99.90
11505;DHT22;5809;53.262;10.408;2023-07-28T11:55:16;22.50;1.00
11505;DHT22;5809;53.262;10.408;2023-07-28T12:02:44;21.60;99.90
11505;DHT22;5809;53.262;10.408;2023-07-28T12:07:47;21.20;99.90
11505;DHT22;5809;53.262;10.408;2023-07-28T12:15:22;20.70;99.90
11505;DHT22;5809;53.262;10.408;2023-07-28T12:18:04;20.70;99.90
11505;DHT22;5809;53.262;10.408;2023-07-28T12:20:36;20.80;99.90
11505;DHT22;5809;53.262;10.408;2023-07-28T12:42:44;23.40;99.90
11505;DHT22;5809;53.262;10.408;2023-07-28T12:47:39;23.60;99.90
11505;DHT22;5809;53.262;10.408;2023-07-28T12:50:08;23.60;1.00
11505;DHT22;5809;53.262;10.408;2023-07-28T12:57:31;23.20;1.00
11505;DHT22;5809;53.262;10.408;2023-07-28T13:02:25;23.10;99.90
11505;DHT22;5809;53.262;10.408;2023-07-28T13:14:43;22.90;51.60
11505;DHT22;5809;53.262;10.408;2023-07-28T13:17:10;22.90;1.00
11505;DHT22;5809;53.262;10.408;2023-07-28T13:19:38;23.00;1.00
11505;DHT22;5809;53.262;10.408;2023-07-28T13:22:05;22.90;1.00
11505;DHT22;5809;53.262;10.408;2023-07-28T13:24:32;23.00;1.00
11505;DHT22;5809;53.262;10.408;2023-07-28T13:27:00;23.10;1.00
11505;DHT22;5809;53.262;10.408;2023-07-28T13:29:27;23.30;99.90
11505;DHT22;5809;53.262;10.408;2023-07-28T13:31:57;23.60;1.00
11505;DHT22;5809;53.262;10.408;2023-07-28T13:34:24;23.90;99.90
11505;DHT22;5809;53.262;10.408;2023-07-28T13:36:51;24.40;1.00
11505;DHT22;5809;53.262;10.408;2023-07-28T13:39:18;24.90;99.90
11505;DHT22;5809;53.262;10.408;2023-07-28T13:41:45;25.70;1.00
11505;DHT22;5809;53.262;10.408;2023-07-28T13:44:13;26.20;1.00
11505;DHT22;5809;53.262;10.408;2023-07-28T13:46:40;26.10;1.00
11505;DHT22;5809;53.262;10.408;2023-07-28T13:49:07;26.20;1.00
11505;DHT22;5809;53.262;10.408;2023-07-28T13:51:34;26.40;99.90
11505;DHT22;5809;53.262;10.408;2023-07-28T13:54:00;25.60;1.00
11505;DHT22;5809;53.262;10.408;2023-07-28T13:56:28;25.40;5.70
11505;DHT22;5809;53.262;10.408;2023-07-28T13:58:55;25.00;1.00
11505;DHT22;5809;53.262;10.408;2023-07-28T14:01:23;24.70;1.00
11505;DHT22;5809;53.262;10.408;2023-07-28T14:03:50;24.90;1.00
11505;DHT22;5809;53.262;10.408;2023-07-28T14:06:17;26.00;1.00
11505;DHT22;5809;53.262;10.408;2023-07-28T14:08:44;27.00;1.00
11505;DHT22;5809;53.262;10.408;2023-07-28T14:11:11;27.60;99.90
11505;DHT22;5809;53.262;10.408;2023-07-28T14:13:38;27.00;99.90
11505;DHT22;5809;53.262;10.408;2023-07-28T14:16:05;26.70;1.00
11505;DHT22;5809;53.262;10.408;2023-07-28T14:18:36;26.60;99.90
11505;DHT22;5809;53.262;10.408;2023-07-28T14:21:03;26.40;99.90
11505;DHT22;5809;53.262;10.408;2023-07-28T14:23:30;26.00;81.10
11505;DHT22;5809;53.262;10.408;2023-07-28T14:25:57;26.10;1.00
11505;DHT22;5809;53.262;10.408;2023-07-28T14:28:24;26.30;99.90
11505;DHT22;5809;53.262;10.408;2023-07-28T14:30:51;26.50;99.90
11505;DHT22;5809;53.262;10.408;2023-07-28T14:33:18;26.50;69.00
11505;DHT22;5809;53.262;10.408;2023-07-28T14:35:47;26.00;1.00
11505;DHT22;5809;53.262;10.408;2023-07-28T14:38:15;25.60;99.90
11505;DHT22;5809;53.262;10.408;2023-07-28T14:40:43;25.20;1.00
11505;DHT22;5809;53.262;10.408;2023-07-28T14:43:14;24.90;99.90
11505;DHT22;5809;53.262;10.408;2023-07-28T14:45:41;24.60;99.90
11505;DHT22;5809;53.262;10.408;2023-07-28T14:48:08;24.30;1.00
11505;DHT22;5809;53.262;10.408;2023-07-28T14:50:35;24.00;1.00
11505;DHT22;5809;53.262;10.408;2023-07-28T14:53:26;23.80;1.00
11505;DHT22;5809;53.262;10.408;2023-07-28T14:55:50;23.50;1.00
11505;DHT22;5809;53.262;10.408;2023-07-28T14:58:17;23.40;1.00
11505;DHT22;5809;53.262;10.408;2023-07-28T15:00:44;23.80;1.00
11505;DHT22;5809;53.262;10.408;2023-07-28T15:03:10;24.10;1.00
11505;DHT22;5809;53.262;10.408;2023-07-28T15:05:37;24.60;99.90
11505;DHT22;5809;53.262;10.408;2023-07-28T15:08:06;24.90;1.00
11505;DHT22;5809;53.262;10.408;2023-07-28T15:10:33;25.00;1.00
11505;DHT22;5809;53.262;10.408;2023-07-28T15:13:00;24.90;1.00
11505;DHT22;5809;53.262;10.408;2023-07-28T15:15:26;24.70;99.90
11505;DHT22;5809;53.262;10.408;2023-07-28T15:17:53;24.70;99.90
11505;DHT22;5809;53.262;10.408;2023-07-28T15:20:20;24.50;99.90
11505;DHT22;5809;53.262;10.408;2023-07-28T15:22:48;24.70;1.00
11505;DHT22;5809;53.262;10.408;2023-07-28T15:25:17;23.20;1.00
11505;DHT22;5809;53.262;10.408;2023-07-28T15:27:43;24.60;1.00
11505;DHT22;5809;53.262;10.408;2023-07-28T15:30:11;24.40;1.00
11505;DHT22;5809;53.262;10.408;2023-07-28T15:32:38;24.40;1.00
11505;DHT22;5809;53.262;10.408;2023-07-28T15:35:06;24.50;1.00
11505;DHT22;5809;53.262;10.408;2023-07-28T15:37:33;24.40;1.00
11505;DHT22;5809;53.262;10.408;2023-07-28T15:40:00;24.40;99.90
11505;DHT22;5809;53.262;10.408;2023-07-28T15:42:29;24.40;1.00
11505;DHT22;5809;53.262;10.408;2023-07-28T15:44:55;24.40;99.90
11505;DHT22;5809;53.262;10.408;2023-07-28T15:47:22;24.40;1.00
11505;DHT22;5809;53.262;10.408;2023-07-28T15:49:49;24.50;79.30
11505;DHT22;5809;53.262;10.408;2023-07-28T15:52:17;24.40;99.90
11505;DHT22;5809;53.262;10.408;2023-07-28T15:54:44;24.30;63.50
11505;DHT22;5809;53.262;10.408;2023-07-28T15:57:11;24.40;99.90
11505;DHT22;5809;53.262;10.408;2023-07-28T15:59:39;24.30;99.90
11505;DHT22;5809;53.262;10.408;2023-07-28T16:02:07;24.30;1.00
11505;DHT22;5809;53.262;10.408;2023-07-28T16:04:33;24.20;99.90
11505;DHT22;5809;53.262;10.408;2023-07-28T16:07:02;24.20;1.00
11505;DHT22;5809;53.262;10.408;2023-07-28T16:09:29;24.20;99.90
11505;DHT22;5809;53.262;10.408;2023-07-28T16:11:56;24.10;1.00
11505;DHT22;5809;53.262;10.408;2023-07-28T16:14:23;24.10;1.00
11505;DHT22;5809;53.262;10.408;2023-07-28T16:16:51;23.90;99.90
11505;DHT22;5809;53.262;10.408;2023-07-28T16:19:18;23.80;1.00
11505;DHT22;5809;53.262;10.408;2023-07-28T16:21:45;23.70;1.00
11505;DHT22;5809;53.262;10.408;2023-07-28T16:24:12;23.60;99.90
11505;DHT22;5809;53.262;10.408;2023-07-28T16:26:39;23.60;99.90
11505;DHT22;5809;53.262;10.408;2023-07-28T16:29:06;23.70;1.00
11505;DHT22;5809;53.262;10.408;2023-07-28T16:31:34;23.70;1.00
11505;DHT22;5809;53.262;10.408;2023-07-28T16:34:03;23.70;1.00
11505;DHT22;5809;53.262;10.408;2023-07-28T16:36:30;23.70;1.00
11505;DHT22;5809;53.262;10.408;2023-07-28T16:38:57;23.70;1.00
11505;DHT22;5809;53.262;10.408;2023-07-28T16:41:24;23.70;1.00
11505;DHT22;5809;53.262;10.408;2023-07-28T16:43:51;23.70;99.90
11505;DHT22;5809;53.262;10.408;2023-07-28T16:46:18;23.50;1.00
11505;DHT22;5809;53.262;10.408;2023-07-28T16:48:45;23.20;1.00
11505;DHT22;5809;53.262;10.408;2023-07-28T16:51:13;23.00;1.00
11505;DHT22;5809;53.262;10.408;2023-07-28T16:53:40;23.00;99.90
11505;DHT22;5809;53.262;10.408;2023-07-28T16:56:07;22.90;99.90
11505;DHT22;5809;53.262;10.408;2023-07-28T16:58:34;22.80;1.00
11505;DHT22;5809;53.262;10.408;2023-07-28T17:01:01;22.80;1.00
11505;DHT22;5809;53.262;10.408;2023-07-28T17:03:28;22.80;99.90
11505;DHT22;5809;53.262;10.408;2023-07-28T17:05:55;22.80;1.00
11505;DHT22;5809;53.262;10.408;2023-07-28T17:08:23;22.80;1.00
11505;DHT22;5809;53.262;10.408;2023-07-28T17:10:50;22.70;99.90
11505;DHT22;5809;53.262;10.408;2023-07-28T17:13:17;22.80;99.90
11505;DHT22;5809;53.262;10.408;2023-07-28T17:15:45;22.70;99.90
11505;DHT22;5809;53.262;10.408;2023-07-28T17:18:14;22.50;1.00
11505;DHT22;5809;53.262;10.408;2023-07-28T17:20:41;22.40;1.00
11505;DHT22;5809;53.262;10.408;2023-07-28T17:23:08;22.30;1.00
11505;DHT22;5809;53.262;10.408;2023-07-28T17:25:36;22.20;99.90
11505;DHT22;5809;53.262;10.408;2023-07-28T17:28:03;22.10;1.00
11505;DHT22;5809;53.262;10.408;2023-07-28T17:30:30;22.10;1.00
11505;DHT22;5809;53.262;10.408;2023-07-28T17:32:57;22.10;1.00
11505;DHT22;5809;53.262;10.408;2023-07-28T17:35:24;22.10;52.50
11505;DHT22;5809;53.262;10.408;2023-07-28T17:37:51;22.20;99.90
11505;DHT22;5809;53.262;10.408;2023-07-28T17:40:18;22.20;18.70
11505;DHT22;5809;53.262;10.408;2023-07-28T17:42:46;22.20;10.00
11505;DHT22;5809;53.262;10.408;2023-07-28T17:45:13;22.20;72.90
11505;DHT22;5809;53.262;10.408;2023-07-28T17:47:40;22.20;99.90
11505;DHT22;5809;53.262;10.408;2023-07-28T17:50:08;22.20;99.90
11505;DHT22;5809;53.262;10.408;2023-07-28T17:52:35;22.20;99.90
11505;DHT22;5809;53.262;10.408;2023-07-28T17:55:02;22.20;1.00
11505;DHT22;5809;53.262;10.408;2023-07-28T17:57:29;22.10;99.90
11505;DHT22;5809;53.262;10.408;2023-07-28T17:59:57;22.10;99.90
11505;DHT22;5809;53.262;10.408;2023-07-28T18:02:24;22.00;99.90
11505;DHT22;5809;53.262;10.408;2023-07-28T18:04:51;22.00;1.00
11505;DHT22;5809;53.262;10.408;2023-07-28T18:07:18;21.90;99.90
11505;DHT22;5809;53.262;10.408;2023-07-28T18:09:45;21.80;99.90
11505;DHT22;5809;53.262;10.408;2023-07-28T18:12:12;21.80;99.90
11505;DHT22;5809;53.262;10.408;2023-07-28T18:14:39;21.80;1.00
11505;DHT22;5809;53.262;10.408;2023-07-28T18:17:07;21.70;1.00
11505;DHT22;5809;53.262;10.408;2023-07-28T18:19:34;21.60;1.00
11505;DHT22;5809;53.262;10.408;2023-07-28T18:22:01;21.60;1.00
11505;DHT22;5809;53.262;10.408;2023-07-28T18:24:28;21.50;1.00
11505;DHT22;5809;53.262;10.408;2023-07-28T18:26:55;21.50;1.00
11505;DHT22;5809;53.262;10.408;2023-07-28T18:29:22;21.50;1.00
11505;DHT22;5809;53.262;10.408;2023-07-28T18:31:49;21.40;1.00
11505;DHT22;5809;53.262;10.408;2023-07-28T18:34:17;21.40;1.00
11505;DHT22;5809;53.262;10.408;2023-07-28T18:36:44;21.30;1.00
11505;DHT22;5809;53.262;10.408;2023-07-28T18:39:11;21.30;99.90
11505;DHT22;5809;53.262;10.408;2023-07-28T18:41:38;21.20;1.00
11505;DHT22;5809;53.262;10.408;2023-07-28T18:44:05;21.20;31.20
11505;DHT22;5809;53.262;10.408;2023-07-28T18:46:32;21.20;1.00
11505;DHT22;5809;53.262;10.408;2023-07-28T18:48:59;21.10;1.00
11505;DHT22;5809;53.262;10.408;2023-07-28T18:51:27;23.10;88.30
11505;DHT22;5809;53.262;10.408;2023-07-28T18:53:54;21.10;13.10
11505;DHT22;5809;53.262;10.408;2023-07-28T18:56:21;21.00;33.60
11505;DHT22;5809;53.262;10.408;2023-07-28T18:58:48;21.00;95.30
11505;DHT22;5809;53.262;10.408;2023-07-28T19:01:16;20.90;99.90
11505;DHT22;5809;53.262;10.408;2023-07-28T19:03:43;20.90;71.10
11505;DHT22;5809;53.262;10.408;2023-07-28T19:06:10;20.90;1.00
11505;DHT22;5809;53.262;10.408;2023-07-28T19:08:38;20.90;1.00
11505;DHT22;5809;53.262;10.408;2023-07-28T19:11:06;21.00;1.00
11505;DHT22;5809;53.262;10.408;2023-07-28T19:13:33;19.50;1.00
11505;DHT22;5809;53.262;10.408;2023-07-28T19:16:00;21.00;1.00
11505;DHT22;5809;53.262;10.408;2023-07-28T19:20:54;21.00;1.00
11505;DHT22;5809;53.262;10.408;2023-07-28T19:23:22;20.90;1.00
11505;DHT22;5809;53.262;10.408;2023-07-28T19:25:50;20.90;1.00
11505;DHT22;5809;53.262;10.408;2023-07-28T19:30:45;20.80;1.00
11505;DHT22;5809;53.262;10.408;2023-07-28T19:38:10;20.70;88.20
11505;DHT22;5809;53.262;10.408;2023-07-28T19:43:05;20.60;99.90
11505;DHT22;5809;53.262;10.408;2023-07-28T19:45:32;20.50;99.90
11505;DHT22;5809;53.262;10.408;2023-07-28T19:52:53;20.30;99.90
11505;DHT22;5809;53.262;10.408;2023-07-28T19:55:20;20.30;99.90
11505;DHT22;5809;53.262;10.408;2023-07-28T20:00:16;20.20;99.90
11505;DHT22;5809;53.262;10.408;2023-07-28T20:02:43;20.20;99.90
11505;DHT22;5809;53.262;10.408;2023-07-28T20:05:11;20.00;99.90
11505;DHT22;5809;53.262;10.408;2023-07-28T20:10:07;20.10;99.90
11505;DHT22;5809;53.262;10.408;2023-07-28T20:12:34;20.10;99.90
11505;DHT22;5809;53.262;10.408;2023-07-28T20:17:30;20.00;99.90
11505;DHT22;5809;53.262;10.408;2023-07-28T20:19:57;20.00;99.90
11505;DHT22;5809;53.262;10.408;2023-07-28T20:29:45;19.70;99.90
11505;DHT22;5809;53.262;10.408;2023-07-28T20:34:41;19.70;99.90
11505;DHT22;5809;53.262;10.408;2023-07-28T20:39:35;19.70;99.90
11505;DHT22;5809;53.262;10.408;2023-07-28T20:44:30;19.60;99.90
11505;DHT22;5809;53.262;10.408;2023-07-28T20:49:24;19.60;99.90
11505;DHT22;5809;53.262;10.408;2023-07-28T20:51:52;19.50;99.90
11505;DHT22;5809;53.262;10.408;2023-07-28T20:56:46;19.50;99.90
11505;DHT22;5809;53.262;10.408;2023-07-28T21:01:40;19.50;99.90
11505;DHT22;5809;53.262;10.408;2023-07-28T21:06:34;19.50;99.90
11505;DHT22;5809;53.262;10.408;2023-07-28T21:09:03;19.50;99.90
11505;DHT22;5809;53.262;10.408;2023-07-28T21:11:30;19.40;99.90
11505;DHT22;5809;53.262;10.408;2023-07-28T21:13:57;19.40;99.90
11505;DHT22;5809;53.262;10.408;2023-07-28T21:18:51;19.30;99.90
11505;DHT22;5809;53.262;10.408;2023-07-28T21:26:14;19.20;99.90
11505;DHT22;5809;53.262;10.408;2023-07-28T21:31:11;19.20;99.90
11505;DHT22;5809;53.262;10.408;2023-07-28T21:33:38;19.20;99.90
11505;DHT22;5809;53.262;10.408;2023-07-28T21:36:05;19.20;99.90
11505;DHT22;5809;53.262;10.408;2023-07-28T21:40:59;19.20;99.90
11505;DHT22;5809;53.262;10.408;2023-07-28T21:43:27;19.20;99.90
11505;DHT22;5809;53.262;10.408;2023-07-28T21:48:22;19.20;99.90
11505;DHT22;5809;53.262;10.408;2023-07-28T21:50:49;19.20;99.90
11505;DHT22;5809;53.262;10.408;2023-07-28T21:53:16;19.20;99.90
11505;DHT22;5809;53.262;10.408;2023-07-28T21:55:43;19.10;99.90
11505;DHT22;5809;53.262;10.408;2023-07-28T21:58:09;19.00;99.90
11505;DHT22;5809;53.262;10.408;2023-07-28T22:00:38;19.00;99.90
11505;DHT22;5809;53.262;10.408;2023-07-28T22:05:32;18.90;99.90
11505;DHT22;5809;53.262;10.408;2023-07-28T22:08:11;18.90;99.90
11505;DHT22;5809;53.262;10.408;2023-07-28T22:10:38;18.90;99.90
11505;DHT22;5809;53.262;10.408;2023-07-28T22:15:32;19.00;99.90
11505;DHT22;5809;53.262;10.408;2023-07-28T22:18:00;18.90;99.90
11505;DHT22;5809;53.262;10.408;2023-07-28T22:20:29;18.90;99.90
11505;DHT22;5809;53.262;10.408;2023-07-28T22:22:56;18.90;99.90
11505;DHT22;5809;53.262;10.408;2023-07-28T22:27:51;18.80;99.90
11505;DHT22;5809;53.262;10.408;2023-07-28T22:32:45;18.80;99.90
11505;DHT22;5809;53.262;10.408;2023-07-28T22:35:13;18.80;99.90
11505;DHT22;5809;53.262;10.408;2023-07-28T22:37:40;18.90;99.90
11505;DHT22;5809;53.262;10.408;2023-07-28T22:40:08;18.90;99.90
11505;DHT22;5809;53.262;10.408;2023-07-28T22:45:03;18.70;99.90
11505;DHT22;5809;53.262;10.408;2023-07-28T22:47:30;18.70;99.90
11505;DHT22;5809;53.262;10.408;2023-07-28T22:49:57;18.60;99.90